METAR Data
IDs: Format: Raw Decoded Include TAF

Data at: 0425 UTC 26 Sep 2018

KVTA 260354Z AUTO 20008KT 10SM SCT020 OVC055 23/21 A2998 RMK AO2 SLP147 T02280211
KVTA 260349Z AUTO 20009KT 10SM SCT020 OVC055 23/21 A2999 RMK AO2
KVTA 260254Z AUTO 19009KT 10SM FEW013 BKN027 OVC036 23/21 A2998 RMK AO2 SLP148 60000 T02330211 56000
KVTA 260222Z AUTO 19008KT 10SM FEW013 SCT019 OVC032 23/21 A2997 RMK AO2 T02330211
KVTA 260154Z AUTO 19007KT 10SM SCT015 BKN023 OVC029 23/21 A2998 RMK AO2 RAE14 SLP145 P0000 T02330211
KVTA 260128Z AUTO 18009KT 10SM FEW014 BKN020 OVC034 23/21 A2998 RMK AO2 RAE14 P0000 T02330211
KVTA 260121Z AUTO 18007KT 10SM FEW015 BKN030 OVC042 23/21 A2998 RMK AO2 RAE14 P0000 T02330211
KVTA 260054Z AUTO 18007KT 9SM -RA BKN018 OVC026 23/22 A2999 RMK AO2 RAB49 SLP148 P0000 T02330217
KVTA 260024Z AUTO 18008KT 10SM BKN026 OVC032 24/22 A2999 RMK AO2 T02390217
KVTA 252354Z AUTO 17005KT 10SM FEW025 BKN040 BKN049 24/22 A2999 RMK AO2 SLP149 60003 T02390217 10239 20217 51004
KVTA 252338Z AUTO 16007KT 10SM FEW019 SCT025 BKN040 23/22 A2999 RMK AO2 T02330217
KVTA 252254Z AUTO 16007KT 10SM BKN019 BKN028 OVC044 24/22 A2998 RMK AO2 SLP147 T02390217
KVTA 252154Z AUTO 17006KT 10SM BKN017 OVC024 24/21 A2998 RMK AO2 SLP148 T02390211
KVTA 252116Z AUTO 21009KT 10SM SCT017 BKN021 OVC037 24/21 A3000 RMK AO2 T02390211
KVTA 252054Z AUTO 17008KT 10SM FEW015 SCT020 BKN035 23/21 A2998 RMK AO2 SLP145 60003 T02330211 58036
KVTA 251954Z AUTO 17006KT 10SM BKN015 OVC020 23/21 A3001 RMK AO2 SLP156 T02280211
KVTA 251944Z AUTO 18007KT 10SM FEW010 BKN016 OVC021 23/21 A3001 RMK AO2 T02280211
KVTA 251854Z AUTO 20007KT 10SM OVC011 22/21 A3005 RMK AO2 RAE27B42E49 SLP171 P0003 T02220206
KVTA 251846Z AUTO 20009KT 10SM -RA OVC013 22/21 A3006 RMK AO2 RAE27B42 P0003 T02170206
KVTA 251836Z AUTO 20007KT 10SM BKN009 OVC015 22/21 A3006 RMK AO2 RAE27 CIG 007V015 P0003 T02170206
KVTA 251824Z AUTO 20006KT 10SM -RA SCT009 OVC015 22/21 A3007 RMK AO2 P0003 T02170206
KVTA 251807Z AUTO 17008KT 9SM -RA SCT010 OVC017 22/21 A3008 RMK AO2 P0001 T02170206
KVTA 251754Z AUTO 18009KT 9SM -RA BKN012 OVC017 22/21 A3008 RMK AO2 RAB23 SLP183 P0002 60005 T02170211 10222 20200 55002
KVTA 251739Z AUTO 18008KT 6SM -RA BR OVC013 22/21 A3009 RMK AO2 RAB23 P0001 T02220206
KVTA 251731Z AUTO 18007KT 6SM -RA BR OVC015 22/21 A3008 RMK AO2 RAB23 P0001 T02220206
KVTA 251654Z AUTO 18007KT 10SM OVC013 22/21 A3008 RMK AO2 RAB00E19 SLP179 P0000 T02220206
KVTA 251604Z AUTO 18006KT 7SM -RA OVC014 22/21 A3008 RMK AO2 RAB00 P0000 T02170206
KVTA 251554Z AUTO 20005KT 10SM OVC016 22/20 A3007 RMK AO2 RAB08E21 SLP179 P0000 T02170200
KVTA 251535Z AUTO 18007KT 10SM OVC015 22/20 A3007 RMK AO2 RAB08E21 P0000 T02170200
KVTA 251509Z AUTO 19006KT 7SM -RA OVC013 21/19 A3008 RMK AO2 RAB08 P0000 T02110194
KVTA 251454Z AUTO 19008KT 10SM OVC015 21/19 A3009 RMK AO2 RAB16E25B43E54 SLP185 P0003 60003 T02110194 55000
KVTA 251429Z AUTO 18007KT 10SM OVC015 21/19 A3009 RMK AO2 LTG DSNT N RAB16E25 P0000 T02110194
KVTA 251422Z AUTO 19007KT 10SM -RA OVC013 21/19 A3009 RMK AO2 LTG DSNT N RAB16 P0000 T02110194
KVTA 251407Z AUTO 19007KT 10SM VCTS OVC013 21/19 A3009 RMK AO2 LTG DSNT NW T02110194
KVTA 251354Z AUTO 18009KT 10SM OVC014 21/19 A3008 RMK AO2 SLP182 T02060189
KVTA 251311Z AUTO 17008KT 10SM OVC010 20/19 A3008 RMK AO2 CIG 008V015 T02000189
KVTA 251254Z AUTO 18006KT 10SM BKN009 OVC014 20/19 A3008 RMK AO2 CIG 008V012 SLP182 T02000189
KVTA 251206Z AUTO 16007KT 10SM BKN009 OVC014 20/19 A3009 RMK AO2 T02000189
KVTA 251154Z AUTO 22005KT 10SM BKN011 OVC016 20/19 A3009 RMK AO2 RAE00B18E28 SLP186 P0000 60003 70069 T02000189 10200 20194 53007
KVTA 251054Z AUTO 17005KT 10SM -RA BKN010 OVC017 19/18 A3008 RMK AO2 RAB34 SLP182 P0001 T01940183
KVTA 251021Z AUTO 18006KT 10SM OVC011 20/18 A3008 RMK AO2 CIG 009V013 T02000183
KVTA 250954Z AUTO 19008KT 10SM OVC009 20/18 A3008 RMK AO2 SLP181 T02000183
KVTA 250938Z AUTO 18005KT 10SM OVC009 20/18 A3008 RMK AO2 T02000183
KVTA 250854Z AUTO 16008KT 10SM OVC012 19/18 A3007 RMK AO2 SLP178 60002 T01940183 58004
KVTA 250754Z AUTO 17007KT 10SM BKN011 OVC027 19/18 A3008 RMK AO2 RAE15 SLP180 P0001 T01940183
KVTA 250654Z AUTO 17007G15KT 10SM -RA OVC010 19/19 A3008 RMK AO2 RAB30E46B50 SLP182 P0001 T01940189
KVTA 250554Z AUTO 17009KT 10SM OVC012 19/18 A3008 RMK AO2 RAE46 SLP182 P0001 60019 T01940183 10200 20194 58005
KVTA 250454Z AUTO 16008KT 6SM -RA BR OVC011 19/19 A3009 RMK AO2 RAE09B33 CIG 008V015 SLP186 P0001 T01940189 402110150
KVTA 250405Z AUTO 17010KT 10SM -RA BKN010 OVC016 19/18 A3010 RMK AO2 CIG 007V012 P0000 T01940183
KVTA 250354Z AUTO 17007KT 8SM -RA SCT009 OVC015 19/19 A3010 RMK AO2 RAE41B46 SLP190 P0005 T01940189
KVTA 250344Z AUTO 16010G15KT 8SM BKN009 OVC014 19/19 A3010 RMK AO2 RAE41 CIG 007V011 P0005 T01940189
KVTA 250313Z AUTO 16009KT 4SM -RA BR OVC010 19/18 A3010 RMK AO2 CIG 007V012 P0004 T01940183
KVTA 250254Z AUTO 16011G16KT 2 1/2SM +RA BR BKN010 OVC014 19/18 A3010 RMK AO2 CIG 007V012 SLP189 P0011 60012 T01940183 58000
KVTA 250234Z AUTO 14008G14KT 5SM RA BR OVC013 19/18 A3010 RMK AO2 P0003 T01940183
KVTA 250217Z AUTO 14006KT 10SM -RA SCT013 BKN018 OVC036 19/18 A3010 RMK AO2 P0000 T01940183
KVTA 250154Z AUTO 14005KT 10SM -RA FEW015 BKN047 OVC060 20/18 A3011 RMK AO2 RAB0056E20B45 SLP191 P0001 T02000183
KVTA 250124Z AUTO 14007KT 10SM FEW015 SCT023 OVC065 20/19 A3010 RMK AO2 RAB0056E20 P0000 T02000189
KVTA 250108Z AUTO 14008KT 10SM -RA SCT015 BKN023 OVC080 20/19 A3011 RMK AO2 RAB0056 P0000 T02000189
KVTA 250054Z AUTO 14006KT 10SM SCT019 BKN034 OVC085 20/19 A3010 RMK AO2 RAE22B38E48 SLP190 P0000 T02000189
KVTA 250022Z AUTO 14006KT 10SM BKN015 OVC022 20/19 A3010 RMK AO2 RAE22 P0000 T02000189
KVTA 242354Z AUTO 14007KT 10SM -RA BKN011 OVC065 20/19 A3010 RMK AO2 SLP189 P0002 60027 T02000189 10211 20194 58001
KVTA 242331Z AUTO 14005KT 10SM -RA BKN009 BKN033 OVC045 20/19 A3010 RMK AO2 CIG 006V013 P0002 T02000194
KVTA 242315Z AUTO 14006KT 10SM -RA SCT009 BKN013 OVC044 20/19 A3010 RMK AO2 CIG 010V021 P0001 T02000194
KVTA 242308Z AUTO 14006KT 8SM -RA BKN011 BKN020 OVC065 20/19 A3010 RMK AO2 P0001 T02000194
KVTA 242259Z AUTO 15005KT 6SM -RA BR SCT009 BKN016 OVC065 20/19 A3010 RMK AO2 P0001 T02000194
KVTA 242254Z AUTO 15007KT 5SM -RA BR BKN011 BKN022 OVC065 20/19 A3010 RMK AO2 SLP190 P0006 T02000194
KVTA 242224Z AUTO 15009KT 6SM -RA BR BKN010 OVC015 20/19 A3011 RMK AO2 CIG 007V012 P0004 T02000194
KVTA 242154Z AUTO 14008KT 5SM -RA BR BKN008 BKN012 OVC019 21/19 A3010 RMK AO2 SLP190 P0007 T02060194
KVTA 242054Z AUTO 13005KT 3SM RA BR OVC008 21/20 A3010 RMK AO2 CIG 005V010 SLP190 P0005 60012 T02060200 56018
KVTA 241954Z AUTO 11005KT 6SM -RA BR OVC006 20/19 A3012 RMK AO2 CIG 005V011 SLP194 P0004 T02000194
KVTA 241854Z AUTO 11004KT 6SM -RA BR OVC005 19/19 A3014 RMK AO2 SLP202 P0003 T01940189
KVTA 241754Z AUTO 11004KT 4SM -RA BR OVC007 19/19 A3016 RMK AO2 SLP210 P0011 60020 T01940189 10200 20161 58006
KVTA 241744Z AUTO 11003KT 2SM RA BR OVC007 19/19 A3016 RMK AO2 P0010 T01940189
KVTA 241726Z AUTO 12004KT 1 3/4SM +RA BR OVC005 19/19 A3016 RMK AO2 P0006 T01940189
KVTA 241654Z AUTO 09003KT 10SM -RA OVC005 19/18 A3017 RMK AO2 SLP214 P0002 T01940183